Time;durP1;ratioP1;P1;durP2;ratioP2;P2;SDS_P1;SDS_P2;PMS_P1;PMS_P2;Temp;Humidity;BMP_temperature;BMP_pressure;BME280_temperature;BME280_humidity;BME280_pressure;Samples;Min_cycle;Max_cycle;Signal;HPM_P1;HPM_P2
2022/02/09 00:07:48;;;;;;;;;;;9.60;99.90;;;;;;5031708;28;19921;-84
2022/02/09 00:10:14;;;;;;;;;;;9.60;99.90;;;;;;5032198;28;19981;-83
2022/02/09 00:15:30;;;;;;;;;;;9.50;1.00;;;;;;5033657;28;19921;-83
2022/02/09 00:18:47;;;;;;;;;;;9.40;1.00;;;;;;5031243;28;19917;-83
2022/02/09 00:34:24;;;;;;;;;;;9.40;1.00;;;;;;5027810;28;20130;-83
2022/02/09 00:58:48;;;;;;;;;;;9.30;1.00;;;;;;5020250;28;19918;-84
2022/02/09 01:38:05;;;;;;;;;;;9.40;1.00;;;;;;5014235;28;19921;-84
2022/02/09 01:40:09;;;;;;;;;;;9.50;1.00;;;;;;5016675;28;19921;-83
2022/02/09 01:56:17;;;;;;;;;;;9.50;1.00;;;;;;5008130;28;19920;-83
2022/02/09 01:58:43;;;;;;;;;;;9.50;1.00;;;;;;5008117;28;20336;-82
2022/02/09 02:01:08;;;;;;;;;;;9.50;1.00;;;;;;5013745;28;19914;-82
2022/02/09 02:03:34;;;;;;;;;;;9.50;1.00;;;;;;5008579;28;19920;-83
2022/02/09 02:05:59;;;;;;;;;;;9.50;1.00;;;;;;5013843;28;19925;-83
2022/02/09 02:08:25;;;;;;;;;;;9.50;1.00;;;;;;5015138;28;19920;-82
2022/02/09 02:11:18;;;;;;;;;;;9.50;1.00;;;;;;5014045;28;20437;-82
2022/02/09 02:16:34;;;;;;;;;;;9.40;1.00;;;;;;5017102;28;19999;-83
2022/02/09 02:19:08;;;;;;;;;;;9.40;1.00;;;;;;5008494;28;19921;-83
2022/02/09 02:21:55;;;;;;;;;;;9.40;1.00;;;;;;5013471;28;20000;-83
2022/02/09 02:29:59;;;;;;;;;;;9.40;1.00;;;;;;5009941;28;19921;-83
2022/02/09 02:40:10;;;;;;;;;;;9.40;1.00;;;;;;5011666;28;19913;-81
2022/02/09 02:59:28;;;;;;;;;;;9.40;1.00;;;;;;5015274;28;19915;-84
2022/02/09 03:15:44;;;;;;;;;;;9.30;1.00;;;;;;5015638;28;19920;-83
2022/02/09 03:57:46;;;;;;;;;;;9.40;99.90;;;;;;5009987;28;20005;-84
2022/02/09 04:00:19;;;;;;;;;;;9.40;99.90;;;;;;5013155;28;19937;-83
2022/02/09 04:02:45;;;;;;;;;;;9.40;99.90;;;;;;5014863;28;20297;-83
2022/02/09 04:05:11;;;;;;;;;;;9.40;92.00;;;;;;5012101;28;19963;-84
2022/02/09 04:07:36;;;;;;;;;;;9.40;85.90;;;;;;5013978;28;19931;-84
2022/02/09 04:10:03;;;;;;;;;;;9.40;71.40;;;;;;5015651;28;19921;-83
2022/02/09 04:17:58;;;;;;;;;;;9.40;4.60;;;;;;5014191;28;19913;-84
2022/02/09 04:37:10;;;;;;;;;;;9.40;1.00;;;;;;5018336;28;19950;-82
2022/02/09 04:39:49;;;;;;;;;;;9.40;99.90;;;;;;5009707;28;19914;-83
2022/02/09 04:55:10;;;;;;;;;;;9.40;99.90;;;;;;5011246;28;19914;-83
2022/02/09 04:57:44;;;;;;;;;;;9.40;99.90;;;;;;5006190;28;19929;-84
2022/02/09 05:24:38;;;;;;;;;;;9.40;1.00;;;;;;5010139;28;20376;-83
2022/02/09 05:27:16;;;;;;;;;;;9.30;1.00;;;;;;5004295;28;19918;-84
2022/02/09 05:29:42;;;;;;;;;;;9.40;1.00;;;;;;5009344;28;19922;-83
2022/02/09 05:32:07;;;;;;;;;;;9.40;1.00;;;;;;5015574;28;20293;-84
2022/02/09 05:34:33;;;;;;;;;;;9.40;1.00;;;;;;5012641;28;20014;-84
2022/02/09 05:37:00;;;;;;;;;;;9.40;1.00;;;;;;5014988;28;19920;-84
2022/02/09 05:39:26;;;;;;;;;;;9.30;1.00;;;;;;5015328;28;20281;-84
2022/02/09 05:41:51;;;;;;;;;;;9.40;1.00;;;;;;5014070;28;19945;-84
2022/02/09 05:44:17;;;;;;;;;;;9.40;1.00;;;;;;5013093;28;19967;-84
2022/02/09 05:50:04;;;;;;;;;;;9.30;1.00;;;;;;5021228;28;19967;-84
2022/02/09 05:52:26;;;;;;;;;;;9.40;1.00;;;;;;5018354;28;20004;-84
2022/02/09 05:59:45;;;;;;;;;;;9.40;1.00;;;;;;5015472;28;19948;-84
2022/02/09 06:02:11;;;;;;;;;;;9.40;1.00;;;;;;5014065;28;19929;-84
2022/02/09 06:04:38;;;;;;;;;;;9.40;1.00;;;;;;5046443;28;19914;-84
2022/02/09 06:07:04;;;;;;;;;;;9.40;1.00;;;;;;5006725;28;20259;-84
2022/02/09 06:09:29;;;;;;;;;;;9.40;1.00;;;;;;5013038;28;19958;-84
2022/02/09 06:14:54;;;;;;;;;;;9.40;1.00;;;;;;5006185;28;19920;-84
2022/02/09 06:20:06;;;;;;;;;;;9.40;1.00;;;;;;5007652;28;20008;-84
2022/02/09 06:22:31;;;;;;;;;;;9.40;1.00;;;;;;5014191;28;20381;-84
2022/02/09 06:24:56;;;;;;;;;;;9.40;1.00;;;;;;5035480;28;20013;-84
2022/02/09 06:27:22;;;;;;;;;;;9.40;1.00;;;;;;5007155;28;19936;-84
2022/02/09 06:29:48;;;;;;;;;;;9.40;1.00;;;;;;5009696;28;19913;-84
2022/02/09 06:32:15;;;;;;;;;;;9.40;1.00;;;;;;5012970;28;19927;-84
2022/02/09 06:34:42;;;;;;;;;;;9.40;1.00;;;;;;5003381;28;19952;-84
2022/02/09 06:37:24;;;;;;;;;;;9.50;1.00;;;;;;5010988;28;19989;-87
2022/02/09 06:39:57;;;;;;;;;;;9.50;1.00;;;;;;5014782;28;19918;-86
2022/02/09 06:42:23;;;;;;;;;;;9.50;99.90;;;;;;5009584;28;19917;-88
2022/02/09 06:44:56;;;;;;;;;;;9.60;99.90;;;;;;5017393;28;19924;-86
2022/02/09 06:47:25;;;;;;;;;;;9.70;99.90;;;;;;5014017;28;19935;-86
2022/02/09 06:49:57;;;;;;;;;;;9.70;49.30;;;;;;5014890;28;19921;-86
2022/02/09 06:52:23;;;;;;;;;;;9.60;1.00;;;;;;5013944;28;20400;-87
2022/02/09 06:55:10;;;;;;;;;;;9.60;1.00;;;;;;5014317;28;19913;-87
2022/02/09 06:57:58;;;;;;;;;;;9.60;1.00;;;;;;5014094;28;19993;-87
2022/02/09 07:00:23;;;;;;;;;;;9.70;1.00;;;;;;5014699;28;19921;-87
2022/02/09 07:02:50;;;;;;;;;;;9.70;1.00;;;;;;5015918;28;19913;-87
2022/02/09 07:05:16;;;;;;;;;;;9.60;1.00;;;;;;5017022;28;19918;-85
2022/02/09 07:07:42;;;;;;;;;;;9.70;1.00;;;;;;5019999;28;19973;-86
2022/02/09 07:10:08;;;;;;;;;;;9.70;99.90;;;;;;5023045;28;19935;-87
2022/02/09 07:12:33;;;;;;;;;;;9.60;99.90;;;;;;5022849;28;20535;-86
2022/02/09 07:14:59;;;;;;;;;;;9.60;99.90;;;;;;5021916;28;19920;-86
2022/02/09 07:17:25;;;;;;;;;;;9.60;99.90;;;;;;5021855;28;19935;-87
2022/02/09 07:19:55;;;;;;;;;;;9.60;99.90;;;;;;5016934;28;19914;-87
2022/02/09 07:22:26;;;;;;;;;;;9.70;99.90;;;;;;5008928;28;20085;-88
2022/02/09 07:25:03;;;;;;;;;;;9.70;99.90;;;;;;5002433;28;19917;-86
2022/02/09 07:27:40;;;;;;;;;;;9.70;99.90;;;;;;5004912;28;19998;-87
2022/02/09 07:30:08;;;;;;;;;;;9.70;99.90;;;;;;5029342;28;20016;-86
2022/02/09 07:32:34;;;;;;;;;;;9.70;99.90;;;;;;5029914;28;19921;-87
2022/02/09 07:35:00;;;;;;;;;;;9.70;99.90;;;;;;5014347;28;19914;-87
2022/02/09 07:37:25;;;;;;;;;;;9.70;99.90;;;;;;5012936;28;19983;-87
2022/02/09 07:39:51;;;;;;;;;;;9.70;99.90;;;;;;5008396;28;19941;-86
2022/02/09 07:42:24;;;;;;;;;;;9.70;74.20;;;;;;5007834;28;19966;-86
2022/02/09 07:45:04;;;;;;;;;;;9.70;29.00;;;;;;5005895;28;19918;-86
2022/02/09 07:53:05;;;;;;;;;;;9.70;1.00;;;;;;5020308;28;19917;-86
2022/02/09 07:55:31;;;;;;;;;;;9.80;1.00;;;;;;5015282;28;19995;-86
2022/02/09 07:57:57;;;;;;;;;;;9.70;1.00;;;;;;5019030;28;19914;-86
2022/02/09 08:00:22;;;;;;;;;;;9.80;1.00;;;;;;5013204;28;19917;-87
2022/02/09 08:02:52;;;;;;;;;;;9.80;1.00;;;;;;5018890;28;19913;-88
2022/02/09 08:05:17;;;;;;;;;;;9.80;99.90;;;;;;5015050;28;19956;-87
2022/02/09 08:07:43;;;;;;;;;;;9.80;99.90;;;;;;5017412;28;19913;-87
2022/02/09 08:10:16;;;;;;;;;;;9.80;99.90;;;;;;5017824;28;19924;-87
2022/02/09 08:31:47;;;;;;;;;;;9.90;99.90;;;;;;5022418;28;19914;-87
2022/02/09 08:34:13;;;;;;;;;;;9.80;99.90;;;;;;5023133;28;19922;-87
2022/02/09 08:36:39;;;;;;;;;;;9.90;99.90;;;;;;5027513;28;19920;-86
2022/02/09 08:39:06;;;;;;;;;;;10.00;99.90;;;;;;5023340;28;19952;-87
2022/02/09 08:41:31;;;;;;;;;;;10.00;99.90;;;;;;5022645;28;19949;-86
2022/02/09 08:43:57;;;;;;;;;;;10.00;99.90;;;;;;5022412;28;19924;-87
2022/02/09 08:46:22;;;;;;;;;;;10.00;99.90;;;;;;5020059;28;19917;-87
2022/02/09 08:48:48;;;;;;;;;;;10.00;99.90;;;;;;5027164;28;19948;-87
2022/02/09 08:51:14;;;;;;;;;;;9.90;99.90;;;;;;5022115;28;19913;-86
2022/02/09 08:53:39;;;;;;;;;;;10.00;99.90;;;;;;5022951;28;19962;-87
2022/02/09 08:56:07;;;;;;;;;;;9.90;99.90;;;;;;5023993;28;19920;-87
2022/02/09 08:58:33;;;;;;;;;;;9.90;99.90;;;;;;5023330;28;19914;-87
2022/02/09 09:01:08;;;;;;;;;;;9.80;1.00;;;;;;5023581;28;20054;-87
2022/02/09 09:03:42;;;;;;;;;;;9.80;1.00;;;;;;5017909;28;20004;-88
2022/02/09 09:06:10;;;;;;;;;;;9.70;1.00;;;;;;5016849;28;19989;-87
2022/02/09 09:08:46;;;;;;;;;;;9.70;1.00;;;;;;5013888;28;19914;-87
2022/02/09 09:11:30;;;;;;;;;;;9.70;1.00;;;;;;5017330;28;19917;-88
2022/02/09 09:25:19;;;;;;;;;;;9.70;99.90;;;;;;5017854;28;20289;-88
2022/02/09 10:33:51;;;;;;;;;;;10.90;1.00;;;;;;4991723;28;19914;-88
2022/02/09 10:36:19;;;;;;;;;;;11.00;99.90;;;;;;5010372;28;19914;-88
2022/02/09 10:38:45;;;;;;;;;;;11.10;1.00;;;;;;4993782;28;20368;-88
2022/02/09 10:41:18;;;;;;;;;;;11.10;99.90;;;;;;5007753;28;19917;-88
2022/02/09 10:43:45;;;;;;;;;;;11.20;77.30;;;;;;5003043;28;19921;-87
2022/02/09 10:46:12;;;;;;;;;;;11.50;99.90;;;;;;5010394;28;20012;-88
2022/02/09 10:48:49;;;;;;;;;;;11.80;1.00;;;;;;5012033;28;19913;-89
2022/02/09 10:51:33;;;;;;;;;;;12.10;95.20;;;;;;5007148;28;19914;-89
2022/02/09 10:54:29;;;;;;;;;;;12.40;99.90;;;;;;5008146;28;19909;-88
2022/02/09 10:56:57;;;;;;;;;;;12.90;1.00;;;;;;5011765;28;19913;-88
2022/02/09 10:59:24;;;;;;;;;;;13.20;99.90;;;;;;5010403;28;20453;-89
2022/02/09 11:01:51;;;;;;;;;;;13.50;99.90;;;;;;5017294;28;19914;-88
2022/02/09 11:04:19;;;;;;;;;;;13.60;24.50;;;;;;5014734;28;19914;-88
2022/02/09 11:06:45;;;;;;;;;;;13.60;1.00;;;;;;5000568;28;19918;-87
2022/02/09 11:09:12;;;;;;;;;;;13.90;1.00;;;;;;5004768;28;20292;-89
2022/02/09 11:11:40;;;;;;;;;;;14.30;1.00;;;;;;4999418;28;19909;-89
2022/02/09 11:14:14;;;;;;;;;;;14.20;1.00;;;;;;5010460;28;20394;-88
2022/02/09 11:16:48;;;;;;;;;;;14.40;1.00;;;;;;5010435;28;19913;-89
2022/02/09 11:19:16;;;;;;;;;;;14.70;1.00;;;;;;5001499;28;20297;-88
2022/02/09 11:21:45;;;;;;;;;;;15.00;1.00;;;;;;5009976;28;19909;-88
2022/02/09 11:24:29;;;;;;;;;;;15.70;1.00;;;;;;4995816;28;20127;-88
2022/02/09 11:27:46;;;;;;;;;;;16.30;1.00;;;;;;5002399;28;20026;-88
2022/02/09 11:30:43;;;;;;;;;;;16.90;1.00;;;;;;5001965;28;19974;-88
2022/02/09 11:33:28;;;;;;;;;;;16.70;1.00;;;;;;5010409;28;19917;-88
2022/02/09 11:36:03;;;;;;;;;;;16.40;1.00;;;;;;4996837;28;19971;-87
2022/02/09 11:38:45;;;;;;;;;;;16.10;1.00;;;;;;5010921;28;20438;-87
2022/02/09 11:41:11;;;;;;;;;;;15.50;1.00;;;;;;4992205;28;19925;-87
2022/02/09 11:43:45;;;;;;;;;;;15.30;1.00;;;;;;4991061;28;19914;-87
2022/02/09 11:58:14;;;;;;;;;;;14.50;1.00;;;;;;5014190;28;20386;-87
2022/02/09 12:01:01;;;;;;;;;;;14.20;1.00;;;;;;5012225;28;19935;-87
2022/02/09 12:12:02;;;;;;;;;;;13.80;1.00;;;;;;5013019;28;19909;-87
2022/02/09 12:17:47;;;;;;;;;;;14.00;1.00;;;;;;5001178;28;19944;-86
2022/02/09 12:20:24;;;;;;;;;;;14.30;1.00;;;;;;5010792;28;19914;-87
2022/02/09 12:25:37;;;;;;;;;;;14.80;1.00;;;;;;5011088;28;19974;-87
2022/02/09 12:28:02;;;;;;;;;;;15.00;1.00;;;;;;5006177;28;19914;-86
2022/02/09 12:30:28;;;;;;;;;;;15.20;1.00;;;;;;5002851;28;19913;-86
2022/02/09 12:32:53;;;;;;;;;;;15.30;1.00;;;;;;5029715;28;20281;-87
2022/02/09 12:35:21;;;;;;;;;;;16.00;1.00;;;;;;5011772;28;19913;-87
2022/02/09 12:37:46;;;;;;;;;;;15.90;1.00;;;;;;5000352;28;20263;-86
2022/02/09 12:40:21;;;;;;;;;;;16.40;1.00;;;;;;5008646;28;19928;-86
2022/02/09 12:42:48;;;;;;;;;;;16.30;1.00;;;;;;5011241;28;19914;-86
2022/02/09 12:45:21;;;;;;;;;;;16.00;1.00;;;;;;5012100;28;19960;-87
2022/02/09 12:47:48;;;;;;;;;;;15.60;1.00;;;;;;5007221;28;20004;-87
2022/02/09 12:50:37;;;;;;;;;;;15.30;1.00;;;;;;5010576;28;20000;-86
2022/02/09 12:53:03;;;;;;;;;;;15.10;1.00;;;;;;5011800;28;19910;-86
2022/02/09 12:55:30;;;;;;;;;;;15.10;1.00;;;;;;5013134;28;19913;-86
2022/02/09 12:57:57;;;;;;;;;;;16.40;1.00;;;;;;5013879;28;19909;-87
2022/02/09 13:00:22;;;;;;;;;;;17.40;1.00;;;;;;5012000;28;19913;-87
2022/02/09 13:02:48;;;;;;;;;;;18.20;1.00;;;;;;4993831;28;20234;-87
2022/02/09 13:05:14;;;;;;;;;;;19.20;1.00;;;;;;5023230;28;19919;-86
2022/02/09 13:07:39;;;;;;;;;;;20.10;1.00;;;;;;5010690;28;19913;-87
2022/02/09 13:10:06;;;;;;;;;;;20.50;1.00;;;;;;5012115;28;19914;-86
2022/02/09 13:12:32;;;;;;;;;;;20.20;1.00;;;;;;5011365;28;19914;-86
2022/02/09 13:15:14;;;;;;;;;;;20.60;1.00;;;;;;5011410;28;19941;-86
2022/02/09 13:18:08;;;;;;;;;;;20.70;1.00;;;;;;5012961;28;20330;-86
2022/02/09 13:26:18;;;;;;;;;;;21.00;1.00;;;;;;5013720;28;19910;-87
2022/02/09 14:02:47;;;;;;;;;;;19.80;1.00;;;;;;4994948;28;20395;-87
2022/02/09 14:03:13;;;;;;;;;;;19.80;1.00;;;;;;4993321;28;20300;-87
2022/02/09 14:53:16;;;;;;;;;;;15.30;99.90;;;;;;4992572;28;20016;-87
2022/02/09 14:55:52;;;;;;;;;;;15.10;99.90;;;;;;5010362;28;19986;-87
2022/02/09 14:58:24;;;;;;;;;;;14.90;99.90;;;;;;5012162;28;20012;-89
2022/02/09 15:16:04;;;;;;;;;;;14.50;99.90;;;;;;5011636;28;19918;-87
2022/02/09 15:19:23;;;;;;;;;;;14.50;99.90;;;;;;4991107;28;20492;-87
2022/02/09 15:23:40;;;;;;;;;;;14.20;99.90;;;;;;4992836;28;19953;-87
2022/02/09 15:26:06;;;;;;;;;;;14.10;99.90;;;;;;4993445;28;19913;-86
2022/02/09 15:28:33;;;;;;;;;;;14.00;99.90;;;;;;4992977;28;19910;-86
2022/02/09 15:31:12;;;;;;;;;;;14.00;99.90;;;;;;5000125;28;19914;-86
2022/02/09 15:33:47;;;;;;;;;;;13.80;99.90;;;;;;5012980;28;19910;-87
2022/02/09 15:36:16;;;;;;;;;;;13.80;99.90;;;;;;5013032;28;19918;-87
2022/02/09 15:38:46;;;;;;;;;;;13.70;99.90;;;;;;5013385;28;19909;-86
2022/02/09 15:41:24;;;;;;;;;;;13.70;99.90;;;;;;5004498;28;19918;-86
2022/02/09 15:56:11;;;;;;;;;;;13.60;99.90;;;;;;4992361;28;19914;-87
2022/02/09 16:16:50;;;;;;;;;;;13.60;99.90;;;;;;5011681;28;20277;-87
2022/02/09 16:24:13;;;;;;;;;;;13.20;99.90;;;;;;4990614;28;19910;-86
2022/02/09 16:45:52;;;;;;;;;;;12.00;1.00;;;;;;5004543;28;20404;-86
2022/02/09 16:48:18;;;;;;;;;;;11.90;1.00;;;;;;5013370;28;20278;-88
2022/02/09 16:50:49;;;;;;;;;;;11.80;1.00;;;;;;5011979;28;19913;-86
2022/02/09 16:53:35;;;;;;;;;;;11.70;1.00;;;;;;5013048;28;19962;-86
2022/02/09 17:20:56;;;;;;;;;;;10.90;1.00;;;;;;5015004;28;20106;-84
2022/02/09 17:23:22;;;;;;;;;;;10.80;1.00;;;;;;5010015;28;19913;-83
2022/02/09 17:25:47;;;;;;;;;;;10.70;1.00;;;;;;5018353;28;19914;-83
2022/02/09 17:28:15;;;;;;;;;;;10.60;1.00;;;;;;5018838;28;19917;-85
2022/02/09 17:33:46;;;;;;;;;;;10.50;1.00;;;;;;5015219;28;19975;-85
2022/02/09 17:37:02;;;;;;;;;;;10.50;1.00;;;;;;4995262;28;19918;-84
2022/02/09 17:58:25;;;;;;;;;;;10.40;1.00;;;;;;5015431;28;19921;-82
2022/02/09 18:00:50;;;;;;;;;;;10.40;1.00;;;;;;5012549;28;19952;-81
2022/02/09 18:03:16;;;;;;;;;;;10.40;1.00;;;;;;5015589;28;20373;-82
2022/02/09 18:05:50;;;;;;;;;;;10.40;1.00;;;;;;5016225;28;19945;-82
2022/02/09 18:08:22;;;;;;;;;;;10.40;1.00;;;;;;5021375;28;20004;-84
2022/02/09 18:10:52;;;;;;;;;;;10.30;1.00;;;;;;5014376;28;20020;-85
2022/02/09 18:29:41;;;;;;;;;;;9.90;1.00;;;;;;5014013;28;19913;-85
2022/02/09 18:37:42;;;;;;;;;;;9.80;1.00;;;;;;5016134;28;19914;-85
2022/02/09 18:48:04;;;;;;;;;;;9.60;1.00;;;;;;5017957;28;19920;-85
2022/02/09 19:03:58;;;;;;;;;;;9.30;1.00;;;;;;5015355;28;20331;-83
2022/02/09 19:07:12;;;;;;;;;;;9.20;1.00;;;;;;5005235;28;19914;-85
2022/02/09 19:48:42;;;;;;;;;;;8.70;99.90;;;;;;5015802;28;19920;-84
2022/02/09 19:51:22;;;;;;;;;;;8.80;99.90;;;;;;5016545;28;19920;-85
2022/02/09 19:56:33;;;;;;;;;;;8.80;99.90;;;;;;5017581;28;19924;-85
2022/02/09 19:59:02;;;;;;;;;;;8.80;99.90;;;;;;5014274;28;19921;-85
2022/02/09 20:01:34;;;;;;;;;;;8.70;99.90;;;;;;5025591;28;19921;-86
2022/02/09 20:04:00;;;;;;;;;;;8.70;99.90;;;;;;5014803;28;22082;-85
2022/02/09 20:06:25;;;;;;;;;;;8.70;99.90;;;;;;5015494;28;19928;-84
2022/02/09 20:08:51;;;;;;;;;;;8.60;99.90;;;;;;5016877;28;20285;-85
2022/02/09 20:11:17;;;;;;;;;;;8.60;1.00;;;;;;5009445;28;19913;-87
2022/02/09 20:13:44;;;;;;;;;;;8.60;44.80;;;;;;5011743;28;20284;-85
2022/02/09 20:16:09;;;;;;;;;;;8.60;99.90;;;;;;5012144;28;19990;-84
2022/02/09 20:18:35;;;;;;;;;;;8.60;99.90;;;;;;5018290;28;19921;-84
2022/02/09 20:21:01;;;;;;;;;;;8.70;99.90;;;;;;5012139;28;20705;-85
2022/02/09 20:23:27;;;;;;;;;;;8.70;99.90;;;;;;5018316;28;19913;-85
2022/02/09 20:25:53;;;;;;;;;;;8.70;99.90;;;;;;5023463;28;19921;-83
2022/02/09 20:28:19;;;;;;;;;;;8.70;99.90;;;;;;5016170;28;20105;-84
2022/02/09 20:30:51;;;;;;;;;;;8.70;99.90;;;;;;5014352;28;20344;-83
2022/02/09 20:33:21;;;;;;;;;;;8.70;99.90;;;;;;5018010;28;19921;-84
2022/02/09 20:35:47;;;;;;;;;;;8.70;99.90;;;;;;5017922;28;19924;-85
2022/02/09 20:38:18;;;;;;;;;;;8.70;99.90;;;;;;5014098;28;19969;-84
2022/02/09 20:40:51;;;;;;;;;;;8.70;1.00;;;;;;5016847;28;19920;-84
2022/02/09 20:43:19;;;;;;;;;;;8.70;99.90;;;;;;5010904;28;20350;-84
2022/02/09 20:45:56;;;;;;;;;;;8.70;1.00;;;;;;5012889;28;19924;-84
2022/02/09 20:48:26;;;;;;;;;;;8.70;1.00;;;;;;5014392;28;20045;-84
2022/02/09 20:50:53;;;;;;;;;;;8.70;3.20;;;;;;5013335;28;20396;-84
2022/02/09 20:53:19;;;;;;;;;;;8.70;1.00;;;;;;5027799;28;20438;-84
2022/02/09 20:55:46;;;;;;;;;;;8.80;26.40;;;;;;5030206;28;19955;-83
2022/02/09 20:58:12;;;;;;;;;;;8.80;29.70;;;;;;5016036;28;20370;-84
2022/02/09 21:05:48;;;;;;;;;;;8.90;1.00;;;;;;5028537;28;20331;-84
2022/02/09 21:24:08;;;;;;;;;;;8.90;99.90;;;;;;5015552;28;19939;-83
2022/02/09 21:44:12;;;;;;;;;;;8.90;91.60;;;;;;5012280;28;19974;-85
2022/02/09 21:59:00;;;;;;;;;;;8.90;1.00;;;;;;5021475;28;19937;-83
2022/02/09 22:01:54;;;;;;;;;;;8.90;99.90;;;;;;5029285;28;19914;-83
2022/02/09 22:28:15;;;;;;;;;;;8.90;99.90;;;;;;5006711;28;19964;-84
2022/02/09 22:34:25;;;;;;;;;;;8.90;99.90;;;;;;5012763;28;19964;-84
2022/02/09 22:55:16;;;;;;;;;;;9.00;99.90;;;;;;5015912;28;19928;-84
2022/02/09 22:57:52;;;;;;;;;;;9.00;99.90;;;;;;5013432;28;19921;-84
2022/02/09 23:03:48;;;;;;;;;;;9.10;99.90;;;;;;5032917;28;19917;-84
2022/02/09 23:13:50;;;;;;;;;;;9.20;1.00;;;;;;5017237;28;19956;-84
